FDX1234 EIKN-EGGW
Flight info
| Callsign | FDX1234 |
|---|---|
| Flight time | 1h 7m |
| Altitude | 30000 |
| Route | CON DCT OLAPO DCT BOFUM Q37 MALUD Q38 VOLFI Z197 LISTO |
| Aircraft | B738/M-SDE2E3FGHIRWXY/LB1 |
Departure
| Time | 2026-05-09 20:06 |
|---|---|
| Airport | Ireland West Airport Knock (EIKN) |
Arrival
| Time | 2026-05-09 21:14 |
|---|---|
| Airport | London Luton Airport (EGGW) |
| Time | Latitude | Longitude | Altitude | Speed | Heading |
|---|---|---|---|---|---|
| 2026-05-09 19:44 | 53.91404 | -8.80935 | 652 ft | 0 kts | 291° |
| 2026-05-09 19:55 | 53.91389 | -8.80953 | 652 ft | 5 kts | 175° |
| 2026-05-09 19:55 | 53.91356 | -8.80931 | 653 ft | 5 kts | 156° |
| 2026-05-09 19:56 | 53.91289 | -8.80901 | 651 ft | 0 kts | 169° |
| 2026-05-09 20:03 | 53.91279 | -8.80898 | 651 ft | 8 kts | 169° |
| 2026-05-09 20:03 | 53.91157 | -8.80900 | 653 ft | 23 kts | 230° |
| 2026-05-09 20:03 | 53.91089 | -8.81341 | 649 ft | 73 kts | 258° |
| 2026-05-09 20:03 | 53.90977 | -8.82275 | 653 ft | 78 kts | 258° |
| 2026-05-09 20:04 | 53.90878 | -8.82995 | 651 ft | 59 kts | 256° |
| 2026-05-09 20:04 | 53.90812 | -8.83536 | 655 ft | 17 kts | 248° |
| 2026-05-09 20:04 | 53.90810 | -8.83590 | 653 ft | 8 kts | 322° |
| 2026-05-09 20:05 | 53.90836 | -8.83522 | 653 ft | 8 kts | 82° |
| 2026-05-09 20:05 | 53.90847 | -8.83410 | 653 ft | 11 kts | 79° |
| 2026-05-09 20:05 | 53.90863 | -8.83288 | 654 ft | 10 kts | 79° |
| 2026-05-09 20:05 | 53.90887 | -8.83098 | 652 ft | 33 kts | 79° |
| 2026-05-09 20:06 | 53.90979 | -8.82277 | 653 ft | 107 kts | 79° |
| 2026-05-09 20:06 | 53.91164 | -8.80675 | 663 ft | 166 kts | 80° |
| 2026-05-09 20:06 | 53.91420 | -8.78624 | 1223 ft | 186 kts | 72° |
| 2026-05-09 20:06 | 53.91676 | -8.76317 | 1689 ft | 218 kts | 86° |
| 2026-05-09 20:07 | 53.91192 | -8.73736 | 2248 ft | 243 kts | 109° |
| 2026-05-09 20:07 | 53.90689 | -8.70914 | 2814 ft | 257 kts | 96° |
| 2026-05-09 20:07 | 53.90367 | -8.67827 | 3377 ft | 275 kts | 95° |
| 2026-05-09 20:07 | 53.90041 | -8.64534 | 3916 ft | 290 kts | 95° |
| 2026-05-09 20:08 | 53.89713 | -8.61084 | 4466 ft | 303 kts | 96° |
| 2026-05-09 20:08 | 53.89051 | -8.53765 | 5544 ft | 324 kts | 96° |
| 2026-05-09 20:08 | 53.88715 | -8.49924 | 6078 ft | 332 kts | 96° |
| 2026-05-09 20:09 | 53.88376 | -8.46011 | 6621 ft | 339 kts | 96° |
| 2026-05-09 20:09 | 53.88042 | -8.42109 | 7112 ft | 344 kts | 96° |
| 2026-05-09 20:09 | 53.87697 | -8.38065 | 7620 ft | 349 kts | 96° |
| 2026-05-09 20:09 | 53.87356 | -8.34097 | 8074 ft | 325 kts | 95° |
| 2026-05-09 20:10 | 53.87043 | -8.30516 | 8538 ft | 293 kts | 95° |
| 2026-05-09 20:10 | 53.86754 | -8.27174 | 9033 ft | 282 kts | 94° |
| 2026-05-09 20:10 | 53.86478 | -8.23944 | 9540 ft | 280 kts | 96° |
| 2026-05-09 20:10 | 53.86200 | -8.20691 | 10122 ft | 276 kts | 96° |
| 2026-05-09 20:11 | 53.85928 | -8.17534 | 10780 ft | 270 kts | 94° |
| 2026-05-09 20:11 | 53.85653 | -8.14330 | 11055 ft | 282 kts | 95° |
| 2026-05-09 20:11 | 53.85363 | -8.10918 | 11194 ft | 303 kts | 96° |
| 2026-05-09 20:11 | 53.85049 | -8.07266 | 11354 ft | 322 kts | 96° |
| 2026-05-09 20:12 | 53.84713 | -8.03405 | 11517 ft | 341 kts | 95° |
| 2026-05-09 20:12 | 53.84357 | -7.99325 | 11671 ft | 359 kts | 96° |
| 2026-05-09 20:12 | 53.83979 | -7.95037 | 11815 ft | 376 kts | 96° |
| 2026-05-09 20:12 | 53.83584 | -7.90573 | 12076 ft | 388 kts | 96° |
| 2026-05-09 20:13 | 53.83179 | -7.86045 | 12682 ft | 390 kts | 97° |
| 2026-05-09 20:13 | 53.82770 | -7.81488 | 13268 ft | 393 kts | 97° |
| 2026-05-09 20:13 | 53.82357 | -7.76902 | 13793 ft | 398 kts | 97° |
| 2026-05-09 20:13 | 53.81936 | -7.72235 | 14308 ft | 401 kts | 96° |
| 2026-05-09 20:14 | 53.81513 | -7.67562 | 14816 ft | 404 kts | 97° |
| 2026-05-09 20:14 | 53.81084 | -7.62846 | 15313 ft | 407 kts | 97° |
| 2026-05-09 20:14 | 53.80651 | -7.58100 | 15800 ft | 410 kts | 96° |
| 2026-05-09 20:14 | 53.80213 | -7.53324 | 16253 ft | 413 kts | 97° |
| 2026-05-09 20:15 | 53.79769 | -7.48501 | 16743 ft | 416 kts | 97° |
| 2026-05-09 20:15 | 53.79321 | -7.43663 | 17204 ft | 419 kts | 97° |
| 2026-05-09 20:15 | 53.78868 | -7.38770 | 17638 ft | 423 kts | 97° |
| 2026-05-09 20:15 | 53.78407 | -7.33835 | 18120 ft | 425 kts | 97° |
| 2026-05-09 20:16 | 53.77936 | -7.28879 | 18563 ft | 429 kts | 98° |
| 2026-05-09 20:16 | 53.77566 | -7.25518 | 18725 ft | 434 kts | 100° |
| 2026-05-09 20:16 | 53.76949 | -7.20572 | 19184 ft | 434 kts | 101° |
| 2026-05-09 20:16 | 53.76292 | -7.15599 | 19617 ft | 436 kts | 101° |
| 2026-05-09 20:17 | 53.75614 | -7.10529 | 19839 ft | 444 kts | 102° |
| 2026-05-09 20:17 | 53.74936 | -7.05453 | 20346 ft | 442 kts | 102° |
| 2026-05-09 20:17 | 53.74264 | -7.00383 | 20778 ft | 444 kts | 102° |
| 2026-05-09 20:17 | 53.73590 | -6.95260 | 21075 ft | 448 kts | 102° |
| 2026-05-09 20:18 | 53.72914 | -6.90107 | 21423 ft | 451 kts | 102° |
| 2026-05-09 20:18 | 53.72235 | -6.84931 | 21770 ft | 454 kts | 102° |
| 2026-05-09 20:18 | 53.71550 | -6.79711 | 21979 ft | 460 kts | 102° |
| 2026-05-09 20:18 | 53.70856 | -6.74447 | 22387 ft | 460 kts | 103° |
| 2026-05-09 20:19 | 53.70151 | -6.69120 | 22619 ft | 466 kts | 103° |
| 2026-05-09 20:19 | 53.69440 | -6.63769 | 22890 ft | 469 kts | 103° |
| 2026-05-09 20:19 | 53.68724 | -6.58402 | 23300 ft | 469 kts | 103° |
| 2026-05-09 20:19 | 53.68006 | -6.53033 | 23665 ft | 471 kts | 103° |
| 2026-05-09 20:20 | 53.67278 | -6.47618 | 23912 ft | 474 kts | 103° |
| 2026-05-09 20:20 | 53.66544 | -6.42181 | 24125 ft | 477 kts | 103° |
| 2026-05-09 20:20 | 53.65804 | -6.36710 | 24414 ft | 478 kts | 103° |
| 2026-05-09 20:20 | 53.65063 | -6.31258 | 24791 ft | 476 kts | 103° |
| 2026-05-09 20:21 | 53.64326 | -6.25851 | 25311 ft | 471 kts | 103° |
| 2026-05-09 20:21 | 53.63593 | -6.20488 | 25765 ft | 468 kts | 104° |
| 2026-05-09 20:21 | 53.62862 | -6.15164 | 26262 ft | 464 kts | 104° |
| 2026-05-09 20:21 | 53.62136 | -6.09896 | 26757 ft | 460 kts | 104° |
| 2026-05-09 20:22 | 53.61414 | -6.04682 | 27261 ft | 456 kts | 104° |
| 2026-05-09 20:22 | 53.60697 | -5.99515 | 27772 ft | 451 kts | 104° |
| 2026-05-09 20:22 | 53.59983 | -5.94389 | 28295 ft | 447 kts | 104° |
| 2026-05-09 20:22 | 53.59276 | -5.89330 | 28799 ft | 442 kts | 105° |
| 2026-05-09 20:23 | 53.58574 | -5.84320 | 29334 ft | 437 kts | 105° |
| 2026-05-09 20:23 | 53.57876 | -5.79361 | 29884 ft | 432 kts | 105° |
| 2026-05-09 20:23 | 53.57186 | -5.74473 | 30359 ft | 428 kts | 105° |
| 2026-05-09 20:23 | 53.56491 | -5.69568 | 30228 ft | 437 kts | 105° |
| 2026-05-09 20:24 | 53.55779 | -5.64555 | 30275 ft | 441 kts | 105° |
| 2026-05-09 20:24 | 53.54340 | -5.54468 | 30273 ft | 452 kts | 105° |
| 2026-05-09 20:25 | 53.53442 | -5.43899 | 30318 ft | 461 kts | 92° |
| 2026-05-09 20:25 | 53.53283 | -5.33005 | 30268 ft | 472 kts | 92° |
| 2026-05-09 20:26 | 53.53054 | -5.21882 | 30261 ft | 480 kts | 93° |
| 2026-05-09 20:26 | 53.52751 | -5.10588 | 30262 ft | 488 kts | 94° |
| 2026-05-09 20:27 | 53.52366 | -4.99142 | 30265 ft | 491 kts | 94° |
| 2026-05-09 20:27 | 53.51979 | -4.87662 | 30260 ft | 492 kts | 94° |
| 2026-05-09 20:28 | 53.51590 | -4.76171 | 30252 ft | 492 kts | 94° |
| 2026-05-09 20:28 | 53.51194 | -4.64694 | 30232 ft | 492 kts | 94° |
| 2026-05-09 20:29 | 53.50584 | -4.47584 | 30244 ft | 490 kts | 95° |
| 2026-05-09 20:29 | 53.50163 | -4.36169 | 30247 ft | 489 kts | 95° |
| 2026-05-09 20:30 | 53.49732 | -4.24773 | 30249 ft | 488 kts | 95° |
| 2026-05-09 20:30 | 53.49291 | -4.13403 | 30252 ft | 487 kts | 95° |
| 2026-05-09 20:31 | 53.48843 | -4.02072 | 30248 ft | 487 kts | 95° |
| 2026-05-09 20:31 | 53.47688 | -3.90935 | 30229 ft | 482 kts | 111° |
| 2026-05-09 20:32 | 53.45409 | -3.80394 | 30232 ft | 482 kts | 112° |
| 2026-05-09 20:32 | 53.43162 | -3.69795 | 30236 ft | 483 kts | 111° |
| 2026-05-09 20:33 | 53.40930 | -3.59230 | 30241 ft | 483 kts | 115° |
| 2026-05-09 20:33 | 53.38029 | -3.49108 | 30252 ft | 481 kts | 120° |
| 2026-05-09 20:34 | 53.35047 | -3.39052 | 30251 ft | 483 kts | 118° |
| 2026-05-09 20:34 | 53.32839 | -3.28421 | 30322 ft | 485 kts | 107° |
| 2026-05-09 20:35 | 53.31151 | -3.17448 | 30241 ft | 487 kts | 107° |
| 2026-05-09 20:35 | 53.29403 | -3.06525 | 30226 ft | 487 kts | 107° |
| 2026-05-09 20:36 | 53.27588 | -2.95591 | 30231 ft | 487 kts | 108° |
| 2026-05-09 20:36 | 53.25745 | -2.84726 | 30246 ft | 484 kts | 108° |
| 2026-05-09 20:37 | 53.24820 | -2.79412 | 30203 ft | 469 kts | 108° |
| 2026-05-09 20:37 | 53.23920 | -2.74259 | 30206 ft | 454 kts | 109° |
| 2026-05-09 20:37 | 53.23048 | -2.69280 | 30193 ft | 440 kts | 109° |
| 2026-05-09 20:37 | 53.22201 | -2.64453 | 30180 ft | 426 kts | 109° |
| 2026-05-09 20:38 | 53.21385 | -2.59800 | 30201 ft | 412 kts | 109° |
| 2026-05-09 20:38 | 53.20585 | -2.55252 | 30166 ft | 403 kts | 109° |
| 2026-05-09 20:38 | 53.19004 | -2.46312 | 30215 ft | 406 kts | 109° |
| 2026-05-09 20:39 | 53.17385 | -2.37196 | 30221 ft | 412 kts | 109° |
| 2026-05-09 20:39 | 53.15765 | -2.28087 | 30223 ft | 413 kts | 109° |
| 2026-05-09 20:40 | 53.13532 | -2.19428 | 30164 ft | 401 kts | 135° |
| 2026-05-09 20:40 | 53.11553 | -2.16297 | 30305 ft | 390 kts | 147° |
| 2026-05-09 20:40 | 53.09374 | -2.13578 | 30016 ft | 392 kts | 149° |
| 2026-05-09 20:41 | 53.07158 | -2.10952 | 29782 ft | 390 kts | 149° |
| 2026-05-09 20:41 | 53.04941 | -2.08347 | 29246 ft | 390 kts | 149° |
| 2026-05-09 20:41 | 53.02755 | -2.05755 | 29112 ft | 380 kts | 149° |
| 2026-05-09 20:41 | 53.00620 | -2.03201 | 29258 ft | 378 kts | 149° |
| 2026-05-09 20:42 | 52.96302 | -1.98007 | 29305 ft | 390 kts | 148° |
| 2026-05-09 20:42 | 52.91845 | -1.92628 | 29293 ft | 402 kts | 148° |
| 2026-05-09 20:43 | 52.87312 | -1.87150 | 29298 ft | 403 kts | 148° |
| 2026-05-09 20:43 | 52.82793 | -1.81705 | 29287 ft | 397 kts | 148° |
| 2026-05-09 20:44 | 52.78346 | -1.76364 | 29304 ft | 395 kts | 148° |
| 2026-05-09 20:44 | 52.73851 | -1.71076 | 29267 ft | 395 kts | 153° |
| 2026-05-09 20:45 | 52.69048 | -1.66792 | 28607 ft | 394 kts | 158° |
| 2026-05-09 20:45 | 52.66607 | -1.64798 | 28114 ft | 388 kts | 158° |
| 2026-05-09 20:45 | 52.64214 | -1.62833 | 27659 ft | 382 kts | 158° |
| 2026-05-09 20:46 | 52.61846 | -1.60863 | 27134 ft | 379 kts | 157° |
| 2026-05-09 20:46 | 52.59515 | -1.58899 | 26689 ft | 373 kts | 157° |
| 2026-05-09 20:46 | 52.57225 | -1.56954 | 26209 ft | 368 kts | 157° |
| 2026-05-09 20:46 | 52.54995 | -1.55053 | 25758 ft | 364 kts | 156° |
| 2026-05-09 20:47 | 52.52765 | -1.53150 | 25303 ft | 359 kts | 156° |
| 2026-05-09 20:47 | 52.50561 | -1.51269 | 24859 ft | 354 kts | 156° |
| 2026-05-09 20:47 | 52.48394 | -1.49422 | 24484 ft | 350 kts | 156° |
| 2026-05-09 20:47 | 52.46241 | -1.47588 | 24021 ft | 347 kts | 156° |
| 2026-05-09 20:48 | 52.44106 | -1.45774 | 23499 ft | 345 kts | 156° |
| 2026-05-09 20:48 | 52.41986 | -1.43973 | 22949 ft | 342 kts | 156° |
| 2026-05-09 20:48 | 52.39879 | -1.42185 | 22404 ft | 339 kts | 156° |
| 2026-05-09 20:48 | 52.37789 | -1.40413 | 21878 ft | 337 kts | 156° |
| 2026-05-09 20:49 | 52.35713 | -1.38654 | 21349 ft | 335 kts | 156° |
| 2026-05-09 20:49 | 52.33635 | -1.36897 | 20627 ft | 339 kts | 156° |
| 2026-05-09 20:49 | 52.31536 | -1.35124 | 20110 ft | 337 kts | 156° |
| 2026-05-09 20:49 | 52.29503 | -1.33403 | 20105 ft | 319 kts | 155° |
| 2026-05-09 20:50 | 52.27569 | -1.31657 | 20129 ft | 319 kts | 153° |
| 2026-05-09 20:50 | 52.25624 | -1.29817 | 19594 ft | 328 kts | 153° |
| 2026-05-09 20:50 | 52.23657 | -1.27935 | 19150 ft | 326 kts | 153° |
| 2026-05-09 20:50 | 52.21697 | -1.26063 | 18653 ft | 325 kts | 153° |
| 2026-05-09 20:51 | 52.19753 | -1.24216 | 18147 ft | 323 kts | 153° |
| 2026-05-09 20:51 | 52.17810 | -1.22379 | 17595 ft | 322 kts | 153° |
| 2026-05-09 20:51 | 52.15870 | -1.20552 | 17076 ft | 320 kts | 153° |
| 2026-05-09 20:51 | 52.13949 | -1.18746 | 16534 ft | 319 kts | 153° |
| 2026-05-09 20:52 | 52.12024 | -1.16940 | 15952 ft | 319 kts | 153° |
| 2026-05-09 20:52 | 52.10099 | -1.15136 | 15409 ft | 319 kts | 153° |
| 2026-05-09 20:52 | 52.08205 | -1.13360 | 15209 ft | 306 kts | 153° |
| 2026-05-09 20:52 | 52.06403 | -1.11672 | 15181 ft | 295 kts | 153° |
| 2026-05-09 20:53 | 52.04640 | -1.10026 | 15120 ft | 291 kts | 153° |
| 2026-05-09 20:53 | 52.02882 | -1.08390 | 15122 ft | 292 kts | 152° |
| 2026-05-09 20:53 | 52.01193 | -1.06492 | 15057 ft | 300 kts | 134° |
| 2026-05-09 20:53 | 52.00160 | -1.03587 | 15126 ft | 302 kts | 107° |
| 2026-05-09 20:54 | 51.99929 | -1.00142 | 14718 ft | 315 kts | 85° |
| 2026-05-09 20:54 | 52.00184 | -0.96650 | 14381 ft | 311 kts | 83° |
| 2026-05-09 20:54 | 52.00477 | -0.93152 | 13908 ft | 310 kts | 82° |
| 2026-05-09 20:54 | 52.00759 | -0.89698 | 13445 ft | 308 kts | 83° |
| 2026-05-09 20:55 | 52.01023 | -0.86290 | 13219 ft | 297 kts | 83° |
| 2026-05-09 20:55 | 52.01260 | -0.83067 | 13260 ft | 291 kts | 83° |
| 2026-05-09 20:55 | 52.01498 | -0.79753 | 13308 ft | 293 kts | 84° |
| 2026-05-09 20:55 | 52.01732 | -0.76468 | 13299 ft | 292 kts | 83° |
| 2026-05-09 20:56 | 52.02219 | -0.73315 | 13252 ft | 289 kts | 59° |
| 2026-05-09 20:56 | 52.04823 | -0.68325 | 12847 ft | 301 kts | 44° |
| 2026-05-09 20:56 | 52.06311 | -0.65931 | 12410 ft | 300 kts | 44° |
| 2026-05-09 20:57 | 52.07771 | -0.63584 | 11941 ft | 299 kts | 44° |
| 2026-05-09 20:57 | 52.09254 | -0.61177 | 11495 ft | 297 kts | 45° |
| 2026-05-09 20:57 | 52.10686 | -0.58832 | 11051 ft | 295 kts | 45° |
| 2026-05-09 20:57 | 52.12118 | -0.56467 | 10713 ft | 289 kts | 45° |
| 2026-05-09 20:58 | 52.13483 | -0.54202 | 10727 ft | 271 kts | 45° |
| 2026-05-09 20:58 | 52.14776 | -0.52052 | 10683 ft | 262 kts | 45° |
| 2026-05-09 20:58 | 52.16040 | -0.49946 | 10705 ft | 260 kts | 45° |
| 2026-05-09 20:58 | 52.17310 | -0.47829 | 10708 ft | 263 kts | 45° |
| 2026-05-09 20:59 | 52.18597 | -0.45680 | 10720 ft | 266 kts | 45° |
| 2026-05-09 20:59 | 52.19894 | -0.43512 | 10722 ft | 268 kts | 45° |
| 2026-05-09 20:59 | 52.21270 | -0.41449 | 10688 ft | 270 kts | 30° |
| 2026-05-09 21:00 | 52.24884 | -0.40490 | 10269 ft | 274 kts | 358° |
| 2026-05-09 21:00 | 52.26789 | -0.40597 | 9846 ft | 274 kts | 358° |
| 2026-05-09 21:00 | 52.28673 | -0.40692 | 9594 ft | 265 kts | 358° |
| 2026-05-09 21:00 | 52.30434 | -0.40200 | 9378 ft | 259 kts | 26° |
| 2026-05-09 21:01 | 52.31796 | -0.38190 | 8660 ft | 273 kts | 59° |
| 2026-05-09 21:01 | 52.32420 | -0.35309 | 8464 ft | 265 kts | 81° |
| 2026-05-09 21:01 | 52.32364 | -0.32400 | 8328 ft | 251 kts | 104° |
| 2026-05-09 21:02 | 52.31303 | -0.27350 | 8131 ft | 219 kts | 111° |
| 2026-05-09 21:02 | 52.30474 | -0.25459 | 8099 ft | 200 kts | 147° |
| 2026-05-09 21:02 | 52.29166 | -0.24618 | 8082 ft | 208 kts | 173° |
| 2026-05-09 21:02 | 52.27734 | -0.24839 | 7604 ft | 209 kts | 199° |
| 2026-05-09 21:03 | 52.26401 | -0.25680 | 7195 ft | 204 kts | 202° |
| 2026-05-09 21:03 | 52.25090 | -0.26536 | 6736 ft | 201 kts | 202° |
| 2026-05-09 21:03 | 52.23796 | -0.27383 | 6284 ft | 200 kts | 203° |
| 2026-05-09 21:03 | 52.22942 | -0.27943 | 5978 ft | 199 kts | 202° |
| 2026-05-09 21:04 | 52.21258 | -0.29044 | 5360 ft | 196 kts | 202° |
| 2026-05-09 21:04 | 52.20014 | -0.29856 | 4898 ft | 189 kts | 201° |
| 2026-05-09 21:04 | 52.18806 | -0.30644 | 4410 ft | 183 kts | 200° |
| 2026-05-09 21:04 | 52.17636 | -0.31406 | 3935 ft | 179 kts | 199° |
| 2026-05-09 21:05 | 52.16493 | -0.32149 | 3488 ft | 175 kts | 198° |
| 2026-05-09 21:05 | 52.15732 | -0.32643 | 3165 ft | 173 kts | 198° |
| 2026-05-09 21:05 | 52.14631 | -0.33359 | 2754 ft | 166 kts | 197° |
| 2026-05-09 21:05 | 52.13560 | -0.34053 | 2300 ft | 165 kts | 197° |
| 2026-05-09 21:06 | 52.12495 | -0.34743 | 2124 ft | 165 kts | 196° |
| 2026-05-09 21:06 | 52.11434 | -0.35429 | 2132 ft | 167 kts | 196° |
| 2026-05-09 21:06 | 52.10362 | -0.36122 | 2121 ft | 165 kts | 197° |
| 2026-05-09 21:06 | 52.09290 | -0.36814 | 2114 ft | 166 kts | 197° |
| 2026-05-09 21:07 | 52.08202 | -0.37517 | 2110 ft | 166 kts | 197° |
| 2026-05-09 21:07 | 52.07127 | -0.38212 | 2101 ft | 166 kts | 196° |
| 2026-05-09 21:07 | 52.06059 | -0.38901 | 2102 ft | 165 kts | 197° |
| 2026-05-09 21:07 | 52.04986 | -0.39593 | 2115 ft | 166 kts | 197° |
| 2026-05-09 21:08 | 52.03908 | -0.40288 | 2116 ft | 166 kts | 197° |
| 2026-05-09 21:08 | 52.02854 | -0.40969 | 2117 ft | 165 kts | 197° |
| 2026-05-09 21:08 | 52.01784 | -0.41658 | 2120 ft | 162 kts | 197° |
| 2026-05-09 21:08 | 52.00757 | -0.42320 | 2124 ft | 161 kts | 197° |
| 2026-05-09 21:09 | 51.99699 | -0.43001 | 2130 ft | 162 kts | 197° |
| 2026-05-09 21:09 | 51.98649 | -0.43676 | 2137 ft | 163 kts | 197° |
| 2026-05-09 21:09 | 51.97607 | -0.44345 | 2140 ft | 164 kts | 197° |
| 2026-05-09 21:09 | 51.96536 | -0.45033 | 2135 ft | 166 kts | 197° |
| 2026-05-09 21:10 | 51.95462 | -0.45723 | 2115 ft | 166 kts | 197° |
| 2026-05-09 21:10 | 51.94397 | -0.46408 | 2137 ft | 164 kts | 197° |
| 2026-05-09 21:10 | 51.93337 | -0.47088 | 2142 ft | 164 kts | 197° |
| 2026-05-09 21:10 | 51.92269 | -0.47773 | 2128 ft | 166 kts | 197° |
| 2026-05-09 21:11 | 51.91197 | -0.48460 | 2127 ft | 166 kts | 197° |
| 2026-05-09 21:12 | 51.86928 | -0.50023 | 2155 ft | 150 kts | 147° |
| 2026-05-09 21:12 | 51.86192 | -0.48872 | 1908 ft | 156 kts | 104° |
| 2026-05-09 21:12 | 51.86023 | -0.47054 | 1738 ft | 160 kts | 89° |
| 2026-05-09 21:12 | 51.86100 | -0.45245 | 1397 ft | 161 kts | 80° |
| 2026-05-09 21:13 | 51.86345 | -0.43474 | 1149 ft | 165 kts | 75° |
| 2026-05-09 21:13 | 51.86664 | -0.41637 | 889 ft | 173 kts | 74° |
| 2026-05-09 21:13 | 51.86980 | -0.39763 | 735 ft | 171 kts | 75° |
| 2026-05-09 21:13 | 51.87277 | -0.37964 | 585 ft | 157 kts | 75° |
| 2026-05-09 21:14 | 51.87543 | -0.36429 | 533 ft | 106 kts | 75° |
| 2026-05-09 21:14 | 51.87664 | -0.35924 | 529 ft | 24 kts | 29° |
| 2026-05-09 21:14 | 51.87726 | -0.35929 | 530 ft | 8 kts | 332° |
| 2026-05-09 21:14 | 51.87772 | -0.35983 | 530 ft | 8 kts | 315° |
| 2026-05-09 21:15 | 51.87786 | -0.36065 | 531 ft | 8 kts | 259° |
| 2026-05-09 21:15 | 51.87773 | -0.36148 | 531 ft | 8 kts | 256° |
| 2026-05-09 21:15 | 51.87745 | -0.36312 | 531 ft | 27 kts | 255° |
| 2026-05-09 21:15 | 51.87692 | -0.36616 | 532 ft | 27 kts | 254° |
| 2026-05-09 21:16 | 51.87642 | -0.36901 | 533 ft | 26 kts | 254° |
| 2026-05-09 21:16 | 51.87606 | -0.37108 | 534 ft | 0 kts | 254° |
| 2026-05-09 21:21 | 51.87601 | -0.37133 | 534 ft | 9 kts | 254° |
| 2026-05-09 21:22 | 51.87586 | -0.37230 | 534 ft | 9 kts | 256° |
| 2026-05-09 21:22 | 51.87577 | -0.37324 | 534 ft | 8 kts | 272° |
| 2026-05-09 21:22 | 51.87601 | -0.37409 | 534 ft | 8 kts | 302° |
| 2026-05-09 21:22 | 51.87642 | -0.37470 | 535 ft | 8 kts | 337° |
| 2026-05-09 21:23 | 51.87685 | -0.37522 | 535 ft | 8 kts | 306° |
| 2026-05-09 21:23 | 51.87712 | -0.37599 | 535 ft | 8 kts | 297° |
| 2026-05-09 21:23 | 51.87733 | -0.37677 | 535 ft | 7 kts | 294° |
| 2026-05-09 21:23 | 51.87754 | -0.37752 | 535 ft | 7 kts | 294° |
| 2026-05-09 21:24 | 51.87774 | -0.37825 | 535 ft | 7 kts | 294° |
| 2026-05-09 21:24 | 51.87817 | -0.37881 | 535 ft | 15 kts | 322° |
| 2026-05-09 21:24 | 51.87937 | -0.37986 | 536 ft | 20 kts | 347° |
| 2026-05-09 21:24 | 51.88053 | -0.37895 | 535 ft | 20 kts | 44° |
| 2026-05-09 21:25 | 51.88117 | -0.37814 | 535 ft | 0 kts | 39° |
| 2026-05-09 21:25 | 51.88119 | -0.37812 | 535 ft | 2 kts | 39° |
| 2026-05-09 21:25 | 51.88158 | -0.37731 | 535 ft | 11 kts | 58° |
| 2026-05-09 21:25 | 51.88197 | -0.37625 | 534 ft | 12 kts | 59° |
| 2026-05-09 21:26 | 51.88234 | -0.37492 | 534 ft | 13 kts | 68° |
| 2026-05-09 21:26 | 51.88261 | -0.37355 | 533 ft | 13 kts | 71° |
| 2026-05-09 21:26 | 51.88324 | -0.37287 | 533 ft | 12 kts | 349° |
| 2026-05-09 21:26 | 51.88407 | -0.37286 | 533 ft | 12 kts | 16° |
| 2026-05-09 21:27 | 51.88429 | -0.37275 | 533 ft | 0 kts | 18° |
| 2026-05-09 21:39 | 51.88428 | -0.37275 | 533 ft | 0 kts | 18° |